Latest Weather Observations for Hamilton Island

IDQ60801

Issued at 1:35 pm EST Friday 25 April 2014 (issued every 30 minutes, with the page automatically refreshed every 10 minutes)

About weather observations | Map of weather stations | Latest weather observations for QLD | Other Formats
Station Details ID: 033106 Name: HAMILTON ISLAND AIRPORT Lat: -20.37 Lon: 148.95 Height: 58.66 m
Data from the previous 72 hours. | See also: Recent months at Hamilton Island
Date/Time
EST
Temp
°C
App
Temp
°C
Dew
Point
Rel
Hum
%
Delta-T
°C
Wind Press
QNH
hPa
Press
MSL
hPa
Rain
since 9 am
mm
Dir
 
Spd
km/h
Gust
km/h
Spd
kts
Gust
kts
25/01:30pm 26.7 26.6 22.3 77 3.0 SE 26 30 14 16 1013.2 - 0.0
25/01:13pm 26.3 25.5 21.7 76 3.1 SE 28 32 15 17 1013.5 - 0.0
25/01:00pm 26.7 25.9 21.7 74 3.3 SE 28 33 15 18 1013.6 - 0.0
25/12:30pm 26.8 26.4 22.4 77 3.0 SE 28 32 15 17 1013.9 - 0.0
25/12:00pm 26.4 25.5 21.4 74 3.3 ESE 28 32 15 17 1014.4 1014.1 0.0
25/11:30am 27.4 27.7 23.0 77 3.0 SE 26 30 14 16 1014.8 - 0.0
25/11:00am 26.2 26.4 22.7 81 2.4 SE 26 30 14 16 1015.2 - 0.0
25/10:40am 25.7 25.2 22.2 81 2.4 SSE 28 33 15 18 1015.5 - 0.0
25/10:30am 25.5 24.9 22.6 84 2.0 SSE 30 35 16 19 1015.7 - 0.0
25/10:00am 25.4 23.9 22.1 82 2.2 SSE 33 39 18 21 1015.8 - 0.0
25/09:30am 25.2 24.9 21.9 82 2.2 SSE 26 35 14 19 1015.7 - 0.0
25/09:00am 24.2 24.8 22.1 88 1.4 SSE 22 30 12 16 1015.7 1015.5 0.2
25/08:57am 24.2 24.8 22.1 88 1.4 SSE 22 28 12 15 1015.8 - 0.2
25/08:30am 24.4 24.0 21.7 85 1.8 SSE 26 33 14 18 1015.7 - 0.2
25/08:26am 24.6 24.0 21.9 85 1.8 SSE 28 32 15 17 1015.7 - 0.2
25/08:00am 24.3 23.4 21.4 84 1.9 SSE 28 33 15 18 1015.5 - 0.2
25/07:44am 24.5 22.7 21.2 82 2.2 SE 32 37 17 20 1015.4 - 0.2
25/07:30am 24.4 23.3 21.7 85 1.8 SE 30 35 16 19 1015.3 - 0.2
25/07:00am 23.9 22.0 21.0 84 1.9 SE 32 37 17 20 1014.8 - 0.2
25/06:30am 23.6 22.5 21.1 86 1.6 SE 28 32 15 17 1014.3 - 0.2
25/06:25am 23.7 22.7 21.2 86 1.6 SE 28 32 15 17 1014.2 - 0.2
25/06:00am 23.5 22.8 21.0 86 1.6 SE 26 30 14 16 1013.9 1013.6 0.2
25/05:41am 23.6 23.4 21.3 87 1.5 SE 24 30 13 16 1013.7 - 0.2
25/05:30am 23.7 23.1 21.2 86 1.6 SE 26 30 14 16 1013.5 - 0.2
25/05:00am 23.8 22.7 21.1 85 1.8 ESE 28 33 15 18 1013.0 - 0.2
25/04:30am 24.1 23.1 21.2 84 1.9 ESE 28 32 15 17 1012.9 - 0.2
25/04:00am 23.9 23.1 20.8 83 2.0 SE 26 32 14 17 1012.9 - 0.2
25/03:30am 23.7 23.5 20.6 83 2.0 SE 22 24 12 13 1012.9 - 0.2
25/03:00am 23.7 24.1 21.0 85 1.8 SE 20 24 11 13 1013.1 1012.8 0.2
25/02:30am 23.5 23.9 20.6 84 1.9 SE 19 22 10 12 1013.5 - 0.2
25/02:00am 23.3 23.4 20.4 84 1.9 SE 20 26 11 14 1013.4 - 0.2
25/01:30am 23.1 22.7 20.1 83 1.9 SSE 22 26 12 14 1013.5 - 0.2
25/01:00am 23.0 22.2 20.1 84 1.9 SSE 24 30 13 16 1013.9 - 0.2
25/12:30am 22.9 22.8 19.9 83 1.9 SSE 20 28 11 15 1014.4 - 0.2
25/12:00am 22.8 21.2 20.0 84 1.8 SSE 28 33 15 18 1014.7 1014.5 0.2
 
Date/Time
EST
Temp
°C
App
Temp
°C
Dew
Point
Rel
Hum
%
Delta-T
°C
Wind Press
QNH
hPa
Press
MSL
hPa
Rain
since 9 am
mm
Dir
 
Spd
km/h
Gust
km/h
Spd
kts
Gust
kts
24/11:30pm 22.7 21.2 20.2 86 1.6 SSE 28 35 15 19 1014.9 - 0.2
24/11:00pm 23.0 20.3 20.5 86 1.6 SSE 35 41 19 22 1015.0 - 0.2
24/10:30pm 23.2 20.6 20.7 86 1.6 SSE 35 41 19 22 1015.0 - 0.2
24/10:18pm 23.4 21.1 20.5 84 1.9 SSE 33 39 18 21 1015.2 - 0.2
24/10:00pm 23.2 21.1 20.5 85 1.8 SSE 32 39 17 21 1015.4 - 0.2
24/09:30pm 23.3 20.5 21.0 87 1.5 SSE 37 43 20 23 1015.3 - 0.2
24/09:00pm 23.4 20.6 21.1 87 1.5 SSE 37 44 20 24 1015.1 1014.9 0.2
24/08:30pm 23.5 21.3 21.4 88 1.4 SSE 35 44 19 24 1014.9 - 0.2
24/08:00pm 24.0 20.5 21.9 88 1.4 SE 43 50 23 27 1014.5 - 0.2
24/07:34pm 24.1 22.6 21.8 87 1.5 SSE 32 35 17 19 1014.2 - 0.2
24/07:30pm 24.1 23.0 21.8 87 1.5 SSE 30 35 16 19 1014.1 - 0.2
24/07:00pm 24.0 22.9 21.7 87 1.5 SE 30 33 16 18 1013.9 - 0.2
24/06:43pm 24.0 22.9 21.7 87 1.5 SE 30 35 16 19 1013.7 - 0.2
24/06:30pm 24.2 22.7 22.1 88 1.4 SE 33 39 18 21 1013.4 - 0.2
24/06:00pm 24.0 22.7 22.1 89 1.3 SSE 32 35 17 19 1013.3 1013.0 0.2
24/05:30pm 23.9 23.0 22.2 90 1.1 SSE 30 35 16 19 1012.7 - 0.2
24/05:00pm 24.2 24.0 22.1 88 1.4 SSE 26 33 14 18 1012.6 - 0.2
24/04:58pm 24.2 23.9 21.9 87 1.5 SSE 26 32 14 17 1012.6 - 0.2
24/04:30pm 24.7 25.2 22.0 85 1.8 SSE 22 28 12 15 1012.3 - 0.2
24/04:29pm 24.6 25.1 21.9 85 1.8 SSE 22 28 12 15 1012.3 - 0.2
24/04:06pm 24.4 23.9 22.1 87 1.5 SSE 28 33 15 18 1011.9 - 0.2
24/04:00pm 24.4 24.2 22.1 87 1.5 SSE 26 33 14 18 1011.9 - 0.2
24/03:30pm 24.6 25.2 22.1 86 1.7 SSE 22 28 12 15 1012.0 - 0.2
24/03:00pm 25.6 26.8 21.5 78 2.7 SE 17 20 9 11 1012.1 1011.8 0.2
24/02:30pm 25.6 26.3 21.5 78 2.7 ESE 20 24 11 13 1012.1 - 0.2
24/02:00pm 25.9 26.5 21.3 76 3.1 E 20 26 11 14 1012.0 - 0.2
24/01:30pm 26.5 27.5 21.7 75 3.2 ESE 19 20 10 11 1012.6 - 0.2
24/01:00pm 25.8 26.1 20.8 74 3.3 E 20 24 11 13 1013.2 - 0.2
24/12:30pm 26.2 26.2 21.6 76 3.1 E 24 30 13 16 1013.3 - 0.0
24/12:00pm 26.0 25.8 21.2 75 3.2 E 24 32 13 17 1013.5 1013.2 0.0
24/11:30am 25.9 26.4 21.1 75 3.2 ENE 20 35 11 19 1013.8 - 0.0
24/11:00am 25.9 24.1 21.1 75 3.2 E 32 37 17 20 1014.0 - 0.0
24/10:30am 26.0 23.8 20.3 71 3.7 E 32 39 17 21 1014.6 - 0.0
24/10:00am 25.6 23.9 20.6 74 3.3 ENE 30 39 16 21 1014.8 - 0.0
24/09:54am 25.3 23.7 20.8 76 3.0 ENE 30 39 16 21 1014.8 - 0.0
24/09:33am 25.0 24.4 21.9 83 2.1 E 28 37 15 20 1014.9 - 0.0
24/09:30am 25.0 24.2 21.7 82 2.2 E 28 33 15 18 1014.8 - 0.0
24/09:00am 24.7 22.8 21.4 82 2.2 E 33 39 18 21 1014.7 1014.5 22.2
24/08:30am 24.5 22.5 21.8 85 1.8 E 35 43 19 23 1014.6 - 22.2
24/08:00am 24.7 22.5 21.4 82 2.2 E 35 43 19 23 1014.3 - 22.0
24/07:30am 24.7 21.9 21.0 80 2.4 E 37 41 20 22 1014.4 - 22.0
24/07:29am 24.7 22.0 21.2 81 2.3 E 37 43 20 23 1014.4 - 22.0
24/07:11am 24.4 22.8 21.9 86 1.7 ESE 33 41 18 22 1014.2 - 22.0
24/07:00am 24.2 23.3 22.1 88 1.4 ESE 30 33 16 18 1013.9 - 22.0
24/06:50am 24.0 23.8 22.1 89 1.3 ESE 26 32 14 17 1014.0 - 22.0
24/06:30am 24.1 23.9 22.0 88 1.4 SE 26 32 14 17 1013.8 - 22.0
24/06:00am 24.1 22.9 21.6 86 1.7 SE 30 35 16 19 1013.4 1013.1 22.0
24/05:42am 24.0 22.9 21.7 87 1.5 SE 30 33 16 18 1013.1 - 22.0
24/05:30am 24.0 22.8 21.5 86 1.7 SE 30 35 16 19 1013.3 - 22.0
24/05:00am 23.9 22.1 21.2 85 1.8 ESE 32 35 17 19 1013.2 - 21.6
24/04:30am 24.0 22.4 21.5 86 1.7 ESE 32 37 17 20 1013.3 - 21.6
24/04:00am 24.2 22.2 21.1 83 2.0 ESE 33 41 18 22 1012.9 - 21.6
24/03:30am 24.3 21.9 21.0 82 2.2 ESE 35 41 19 22 1013.3 - 21.6
24/03:00am 24.0 21.3 20.5 81 2.3 ESE 35 46 19 25 1012.9 1012.6 21.6
24/02:30am 24.0 22.2 21.1 84 1.9 ESE 32 39 17 21 1013.5 - 21.6
24/02:02am 23.6 21.7 20.9 85 1.8 ESE 32 39 17 21 1013.8 - 21.6
24/02:00am 23.8 21.9 21.3 86 1.6 ESE 33 39 18 21 1013.8 - 21.6
24/01:52am 23.8 21.7 20.9 84 1.9 ESE 33 39 18 21 1013.6 - 21.6
24/01:45am 23.9 21.9 21.2 85 1.8 E 33 39 18 21 1013.7 - 21.6
24/01:30am 23.8 21.1 21.3 86 1.6 ESE 37 43 20 23 1013.9 - 21.6
24/01:00am 23.8 20.2 21.7 88 1.4 E 43 48 23 26 1013.9 - 21.6
24/12:37am 23.7 20.8 22.3 92 0.9 ESE 41 54 22 29 1014.1 - 21.6
24/12:30am 23.6 20.9 22.0 91 1.1 ESE 39 50 21 27 1014.2 - 21.6
24/12:20am 23.7 20.3 22.1 91 1.1 E 43 52 23 28 1014.1 - 21.4
24/12:00am 23.1 19.8 22.3 95 0.5 ESE 43 46 23 25 1014.5 1014.3 21.4
 
Date/Time
EST
Temp
°C
App
Temp
°C
Dew
Point
Rel
Hum
%
Delta-T
°C
Wind Press
QNH
hPa
Press
MSL
hPa
Rain
since 9 am
mm
Dir
 
Spd
km/h
Gust
km/h
Spd
kts
Gust
kts
23/11:43pm 23.3 22.0 22.5 95 0.5 ESE 33 41 18 22 1014.6 - 21.2
23/11:41pm 23.2 21.9 22.4 95 0.5 ESE 33 41 18 22 1014.6 - 21.2
23/11:32pm 23.0 21.6 22.3 96 0.5 ESE 33 41 18 22 1014.8 - 21.2
23/11:30pm 23.0 21.6 22.3 96 0.5 ESE 33 39 18 21 1014.8 - 21.2
23/11:00pm 23.1 20.7 21.9 93 0.8 ESE 37 48 20 26 1015.3 - 20.0
23/10:30pm 23.9 21.5 21.8 88 1.4 ESE 37 43 20 23 1015.3 - 19.8
23/10:00pm 24.0 21.9 22.3 90 1.1 ESE 37 46 20 25 1015.4 - 19.8
23/09:37pm 23.8 21.6 22.2 91 1.1 ESE 37 43 20 23 1015.3 - 19.8
23/09:30pm 23.6 21.4 22.2 92 0.9 SE 37 43 20 23 1015.3 - 19.8
23/09:22pm 23.5 21.8 22.5 94 0.7 SE 35 43 19 23 1015.4 - 19.8
23/09:12pm 23.3 20.8 22.3 94 0.7 SE 39 50 21 27 1015.5 - 19.8
23/09:00pm 23.4 20.9 22.4 94 0.7 ESE 39 44 21 24 1015.2 1015.0 19.8
23/08:48pm 23.6 21.4 22.2 92 0.9 SE 37 43 20 23 1015.2 - 19.6
23/08:30pm 24.2 21.2 22.1 88 1.4 SE 41 46 22 25 1014.9 - 19.2
23/08:00pm 23.7 20.6 22.0 90 1.1 SE 41 50 22 27 1014.8 - 19.2
23/07:38pm 24.0 22.4 22.6 92 0.9 SE 35 46 19 25 1014.7 - 19.2
23/07:35pm 24.0 22.4 22.6 92 0.9 SE 35 46 19 25 1014.6 - 19.2
23/07:30pm 24.0 22.1 22.8 93 0.8 SE 37 46 20 25 1014.5 - 19.2
23/07:00pm 24.1 21.3 22.5 91 1.1 SE 41 48 22 26 1014.1 - 19.2
23/06:45pm 24.0 21.8 22.1 89 1.3 SE 37 48 20 26 1013.9 - 19.2
23/06:41pm 24.1 21.9 22.2 89 1.3 SE 37 43 20 23 1013.9 - 19.2
23/06:30pm 24.0 21.0 22.1 89 1.3 SE 41 46 22 25 1013.8 - 19.2
23/06:00pm 24.0 21.9 22.4 91 1.1 SE 37 43 20 23 1013.4 1013.1 19.2
23/05:30pm 23.8 21.2 22.2 91 1.1 SE 39 46 21 25 1013.0 - 19.2
23/05:00pm 23.6 21.1 22.4 93 0.8 SE 39 46 21 25 1013.0 - 19.2
23/04:30pm 23.5 19.8 22.5 94 0.7 SE 46 54 25 29 1012.7 - 19.2
23/04:00pm 23.3 19.2 22.5 95 0.5 SE 48 56 26 30 1012.6 - 19.2
23/03:30pm 23.2 20.4 22.4 95 0.5 SSE 41 48 22 26 1013.1 - 19.0
23/03:00pm 23.1 19.7 22.4 96 0.5 SSE 44 50 24 27 1013.2 1012.9 19.0
23/02:59pm 23.2 19.8 22.5 96 0.5 SSE 44 50 24 27 1013.2 - 19.0
23/02:30pm 23.4 21.1 22.7 96 0.5 SE 39 46 21 25 1013.2 - 18.4
23/02:00pm 23.6 22.2 22.9 96 0.5 SSE 35 43 19 23 1013.3 - 15.6
23/01:30pm 23.7 21.2 23.0 96 0.5 SSE 41 46 22 25 1013.3 - 15.2
23/01:29pm 23.7 21.2 23.0 96 0.5 SSE 41 46 22 25 1013.2 - 15.2
23/01:00pm 23.7 22.3 23.0 96 0.5 SSE 35 46 19 25 1013.6 - 14.0
23/12:58pm 23.5 22.0 22.8 96 0.5 SSE 35 46 19 25 1013.6 - 14.0
23/12:30pm 23.5 23.0 22.8 96 0.5 S 30 39 16 21 1014.1 - 10.2
23/12:15pm 23.8 22.2 22.6 93 0.8 SSE 35 46 19 25 1014.4 - 1.0
23/12:00pm 24.4 23.2 22.7 90 1.1 SSE 33 43 18 23 1014.4 1014.1 0.0
23/11:53am 24.8 23.5 22.5 87 1.5 SSE 33 39 18 21 1014.6 - 0.0
23/11:30am 25.5 24.3 22.6 84 2.0 SE 33 39 18 21 1014.9 - 0.0
23/11:21am 25.7 23.7 22.6 83 2.1 SE 37 43 20 23 1015.0 - 0.0
23/11:00am 25.2 24.0 22.7 86 1.7 SE 33 39 18 21 1015.3 - 0.0
23/10:30am 25.4 23.9 22.7 85 1.8 SE 35 41 19 22 1015.4 - 0.0
23/10:00am 25.2 23.7 22.7 86 1.7 SE 35 43 19 23 1015.6 - 0.0
23/09:30am 25.3 23.5 22.2 83 2.1 SE 35 43 19 23 1015.6 - 0.0
23/09:19am 25.5 23.9 22.6 84 2.0 SE 35 39 19 21 1015.4 - 0.0
23/09:00am 25.3 24.0 22.4 84 1.9 SE 33 37 18 20 1015.4 1015.2 3.0
23/08:44am 25.1 24.0 22.8 87 1.6 SE 33 39 18 21 1015.3 - 3.0
23/08:30am 24.8 23.0 22.3 86 1.7 SE 35 41 19 22 1015.3 - 3.0
23/08:00am 24.3 23.3 22.7 91 1.1 SE 32 37 17 20 1015.1 - 3.0
23/07:52am 24.3 23.4 22.9 92 0.9 SE 32 37 17 20 1015.2 - 3.0
23/07:41am 24.0 22.4 22.6 92 0.9 SE 35 41 19 22 1015.1 - 3.0
23/07:30am 23.8 22.2 22.6 93 0.8 SE 35 41 19 22 1014.9 - 3.0
23/07:28am 23.8 21.8 22.6 93 0.8 SE 37 41 20 22 1014.9 - 3.0
23/07:19am 23.6 21.6 22.6 94 0.7 SE 37 43 20 23 1015.2 - 3.0
23/07:06am 23.3 20.9 22.5 95 0.5 SE 39 44 21 24 1014.9 - 3.0
23/07:00am 23.4 21.4 22.6 95 0.5 SE 37 43 20 23 1015.0 - 3.0
23/06:36am 23.4 21.2 22.2 93 0.8 SE 37 52 20 28 1014.9 - 2.0
23/06:30am 23.7 21.6 22.3 92 0.9 SE 37 46 20 25 1014.8 - 1.8
23/06:01am 23.1 20.9 21.5 91 1.1 SE 35 44 19 24 1014.7 - 1.6
23/06:00am 23.2 21.1 21.6 91 1.1 SE 35 44 19 24 1014.6 1014.4 1.6
23/05:30am 23.6 21.5 21.7 89 1.3 SE 35 41 19 22 1014.7 - 1.0
23/05:00am 24.1 22.9 22.2 89 1.3 SE 32 37 17 20 1014.7 - 0.6
23/04:31am 23.6 22.1 22.0 91 1.1 SE 33 39 18 21 1014.7 - 0.6
23/04:30am 23.8 22.5 22.4 92 0.9 SE 33 39 18 21 1014.7 - 0.6
23/04:14am 24.7 22.9 22.2 86 1.7 SE 35 43 19 23 1014.6 - 0.4
23/04:00am 24.7 23.1 21.8 84 1.9 SE 33 39 18 21 1014.5 - 0.4
23/03:30am 24.5 23.0 21.8 85 1.8 SE 32 39 17 21 1014.5 - 0.4
23/03:25am 24.6 23.0 21.9 85 1.8 SE 33 39 18 21 1014.4 - 0.4
23/03:00am 24.5 22.9 21.8 85 1.8 SE 33 41 18 22 1014.6 1014.4 0.4
23/02:51am 24.7 22.7 21.8 84 1.9 SE 35 41 19 22 1014.8 - 0.4
23/02:37am 24.7 23.2 22.0 85 1.8 SE 33 39 18 21 1014.8 - 0.4
23/02:30am 24.7 23.3 22.0 85 1.8 ESE 32 35 17 19 1014.7 - 0.4
23/02:00am 24.6 23.7 22.1 86 1.7 SE 30 37 16 20 1015.1 - 0.4
23/01:57am 24.4 23.1 22.1 87 1.5 SE 32 35 17 19 1015.2 - 0.4
23/01:51am 24.5 23.0 22.0 86 1.7 SE 33 39 18 21 1015.1 - 0.4
23/01:37am 24.5 23.6 22.2 87 1.5 SE 30 33 16 18 1015.3 - 0.4
23/01:30am 24.4 23.6 22.3 88 1.4 SE 30 33 16 18 1015.4 - 0.4
23/01:00am 24.6 23.3 22.1 86 1.7 SE 32 35 17 19 1015.6 - 0.4
23/12:30am 24.1 23.2 22.2 89 1.3 SE 30 32 16 17 1016.1 - 0.4
23/12:00am 24.2 22.5 21.7 86 1.7 ESE 33 44 18 24 1016.3 1016.1 0.4
 
Date/Time
EST
Temp
°C
App
Temp
°C
Dew
Point
Rel
Hum
%
Delta-T
°C
Wind Press
QNH
hPa
Press
MSL
hPa
Rain
since 9 am
mm
Dir
 
Spd
km/h
Gust
km/h
Spd
kts
Gust
kts
22/11:30pm 24.2 23.1 21.7 86 1.7 SE 30 35 16 19 1016.4 - 0.4
22/11:00pm 24.8 23.1 21.7 83 2.1 SE 33 37 18 20 1016.8 - 0.2
22/10:30pm 24.7 23.6 21.8 84 1.9 SE 30 35 16 19 1016.8 - 0.2
22/10:00pm 24.5 22.8 21.4 83 2.1 ESE 32 35 17 19 1016.7 - 0.2
22/09:30pm 24.1 22.3 21.6 86 1.7 SE 33 43 18 23 1016.8 - 0.0
22/09:00pm 24.6 22.7 21.3 82 2.2 ESE 33 37 18 20 1016.9 1016.7 0.0
22/08:30pm 24.4 22.7 21.3 83 2.0 ESE 32 39 17 21 1016.8 - 0.0
22/08:00pm 25.1 23.6 21.0 78 2.7 ESE 30 35 16 19 1017.0 - 0.0
22/07:30pm 24.9 25.1 21.4 81 2.3 SE 22 26 12 14 1016.9 - 0.0
22/07:00pm 24.7 23.6 21.0 80 2.4 ESE 28 35 15 19 1016.5 - 0.0
22/06:30pm 24.3 23.5 20.8 81 2.3 ESE 26 32 14 17 1016.1 - 0.0
22/06:00pm 25.0 24.4 20.5 76 2.9 SE 24 28 13 15 1016.1 1015.9 0.0
22/05:30pm 25.0 23.4 19.1 70 3.8 ESE 26 30 14 16 1016.0 - 0.0
22/05:00pm 25.0 23.7 19.1 70 3.8 SE 24 30 13 16 1015.8 - 0.0
22/04:30pm 25.2 23.3 18.6 67 4.2 SE 26 32 14 17 1015.8 - 0.0
22/04:00pm 25.2 23.2 18.2 65 4.4 ESE 26 30 14 16 1015.7 - 0.0
22/03:30pm 25.5 23.7 18.7 66 4.3 ESE 26 30 14 16 1015.7 - 0.0
22/03:00pm 25.6 22.9 17.5 61 5.1 ESE 28 33 15 18 1015.7 1015.5 0.0
22/02:30pm 26.3 24.6 18.9 63 4.7 ESE 26 32 14 17 1015.8 - 0.0
22/02:00pm 26.2 23.9 17.6 59 5.4 ESE 26 32 14 17 1016.0 - 0.0

Other Formats:

Comma delimited format used in spreadsheet applications
http://www.bom.gov.au/fwo/IDQ60801/IDQ60801.94368.axf

JavaScript Object Notation format (JSON) in row-major order
http://www.bom.gov.au/fwo/IDQ60801/IDQ60801.94368.json